Latest Weather Observations for Burketown Airport

IDQ60801

Issued at 5:02 pm EST Tuesday 17 May 2022 (issued every 10 minutes, with the page automatically refreshed every 10 minutes)

About weather observations | Map of weather stations | Latest weather observations for QLD | Other Formats
Station Details ID: 029077 Name: BURKETOWN AIRPORT Lat: -17.75 Lon: 139.54 Height: 5.7 m
Data from the previous 72 hours. | See also: Recent months at Burketown Airport
Date/Time
EST
Temp
°C
App
Temp
°C
Dew
Point
°C
Rel
Hum
%
Delta-T
°C
Wind Press
QNH
hPa
Press
MSL
hPa
Rain since
9am
mm
Dir  Spd
km/h
Gust
km/h
Spd
kts
Gust
kts
17/05:00pm 30.9 25.8 6.0 21 13.2 S 22 32 12 17 1012.4 1012.3 0.0
17/04:30pm 31.4 25.5 5.8 20 13.6 S 26 35 14 19 1012.1 1012.0 0.0
17/04:00pm 31.7 25.2 4.5 18 14.2 S 28 41 15 22 1012.1 1012.0 0.0
17/03:30pm 31.9 24.8 3.8 17 14.5 SSE 30 41 16 22 1012.3 1012.2 0.0
17/03:00pm 31.9 25.0 4.6 18 14.3 S 30 43 16 23 1012.4 1012.3 0.0
17/02:30pm 32.2 25.5 5.7 19 14.1 S 30 41 16 22 1012.7 1012.6 0.0
17/02:00pm 31.8 25.4 5.3 19 14.0 SSE 28 39 15 21 1013.2 1013.1 0.0
17/01:30pm 31.8 24.7 5.3 19 14.0 SSE 32 43 17 23 1013.7 1013.6 0.0
17/01:00pm 30.9 24.9 5.3 20 13.4 SSE 26 39 14 21 1014.3 1014.2 0.0
17/12:30pm 30.0 23.4 7.8 25 12.1 SSE 32 41 17 22 1014.8 1014.7 0.0
17/12:00pm 30.0 24.5 9.0 27 11.7 SSE 28 41 15 22 1015.4 1015.3 0.0
17/11:30am 29.1 23.4 9.8 30 10.8 SSE 30 39 16 21 1016.0 1015.9 0.0
17/11:00am 28.5 23.4 10.7 33 10.1 SE 28 39 15 21 1016.3 1016.2 0.0
17/10:30am 27.6 22.2 10.8 35 9.5 SSE 30 41 16 22 1016.5 1016.4 0.0
17/10:00am 26.8 21.1 11.3 38 8.8 SE 32 41 17 22 1016.5 1016.4 0.0
17/09:30am 25.6 20.0 11.4 41 8.0 SSE 32 39 17 21 1016.6 1016.5 0.0
17/09:00am 24.3 19.8 12.6 48 6.7 SSE 28 41 15 22 1016.3 1016.2 0.0
17/08:30am 23.1 19.1 13.0 53 5.8 SSE 26 39 14 21 1016.0 1015.9 0.0
17/08:00am 21.9 19.2 13.5 59 4.8 SSE 20 28 11 15 1015.7 1015.6 0.0
17/07:30am 20.3 18.0 14.0 67 3.6 SSE 19 24 10 13 1015.4 1015.3 0.0
17/07:00am 19.3 18.1 14.1 72 3.0 SSE 13 17 7 9 1015.1 1015.0 0.0
17/06:30am 20.4 18.5 14.1 67 3.6 SSE 17 24 9 13 1014.6 1014.5 0.0
17/06:00am 21.0 18.7 14.2 65 4.0 SSE 19 22 10 12 1014.3 1014.2 0.0
17/05:30am 21.0 19.5 14.2 65 4.0 SSE 15 20 8 11 1013.9 1013.8 0.0
17/05:00am 21.3 19.9 14.5 65 4.0 SSE 15 19 8 10 1013.5 1013.4 0.0
17/04:30am 22.1 20.4 14.7 63 4.4 SSE 17 22 9 12 1013.4 1013.3 0.0
17/04:00am 22.6 20.6 15.0 62 4.5 SSE 19 24 10 13 1013.1 1013.0 0.0
17/03:30am 22.9 21.4 15.2 62 4.6 SSE 17 22 9 12 1013.1 1013.0 0.0
17/03:00am 23.0 22.1 15.8 64 4.3 SSE 15 19 8 10 1013.1 1013.0 0.0
17/02:30am 22.9 22.6 16.4 66 4.0 SSE 13 17 7 9 1013.1 1013.0 0.0
17/02:00am 23.1 22.4 16.4 66 4.1 SSE 15 17 8 9 1013.3 1013.2 0.0
17/01:30am 23.1 22.2 16.9 68 3.8 SSE 17 20 9 11 1013.3 1013.2 0.0
17/01:00am 22.9 22.9 17.1 70 3.6 S 13 17 7 9 1013.4 1013.3 0.0
17/12:30am 23.2 22.8 17.2 69 3.7 S 15 19 8 10 1013.5 1013.4 0.0
17/12:00am 22.4 22.5 17.5 74 3.0 SSE 13 15 7 8 1013.6 1013.5 0.0
 
Date/Time
EST
Temp
°C
App
Temp
°C
Dew
Point
°C
Rel
Hum
%
Delta-T
°C
Wind Press
QNH
hPa
Press
MSL
hPa
Rain since
9am
mm
Dir  Spd
km/h
Gust
km/h
Spd
kts
Gust
kts
16/11:30pm 23.0 23.5 17.5 71 3.4 SSE 11 13 6 7 1013.7 1013.6 0.0
16/11:00pm 23.3 23.4 17.5 70 3.6 SSE 13 13 7 7 1013.7 1013.6 0.0
16/10:30pm 23.3 23.9 17.7 71 3.5 SSE 11 15 6 8 1013.6 1013.5 0.0
16/10:00pm 23.6 24.2 17.6 69 3.7 SSE 11 11 6 6 1013.5 1013.4 0.0
16/09:30pm 24.2 24.7 17.4 65 4.2 SSE 11 13 6 7 1013.4 1013.3 0.0
16/09:00pm 24.7 24.8 17.4 64 4.5 SSE 13 15 7 8 1013.2 1013.1 0.0
16/08:30pm 24.4 25.0 17.6 66 4.2 S 11 13 6 7 1013.0 1012.9 0.0
16/08:00pm 24.7 25.0 17.9 66 4.3 S 13 15 7 8 1012.6 1012.5 0.0
16/07:30pm 25.4 26.0 17.8 62 4.8 S 11 13 6 7 1012.4 1012.3 0.0
16/07:00pm 26.4 27.3 17.5 58 5.6 S 9 11 5 6 1012.1 1012.0 0.0
16/06:30pm 27.5 28.0 17.4 54 6.3 S 11 13 6 7 1011.9 1011.8 0.0
16/06:00pm 29.5 30.1 16.7 46 8.0 SSE 9 13 5 7 1011.6 1011.5 0.0
16/05:30pm 30.6 29.8 16.2 41 9.0 SSE 15 20 8 11 1011.2 1011.1 0.0
16/05:00pm 31.2 30.7 16.0 40 9.5 SE 13 20 7 11 1011.1 1011.0 0.0
16/04:30pm 31.5 30.6 15.9 39 9.7 SE 15 20 8 11 1010.9 1010.8 0.0
16/04:00pm 32.0 31.6 16.3 39 9.9 SSE 13 22 7 12 1010.7 1010.6 0.0
16/03:30pm 32.1 30.9 16.0 38 10.1 SE 17 20 9 11 1010.7 1010.6 0.0
16/03:00pm 31.7 30.3 15.6 37 10.0 SSE 17 26 9 14 1011.0 1010.9 0.0
16/02:30pm 32.0 31.0 15.5 37 10.2 SE 15 24 8 13 1011.3 1011.2 0.0
16/02:00pm 31.6 30.2 15.5 37 10.0 SE 17 22 9 12 1011.6 1011.5 0.0
16/01:30pm 31.2 29.8 17.1 42 8.9 SSE 20 28 11 15 1012.0 1011.9 0.0
16/01:00pm 30.6 30.2 18.0 47 8.1 SE 17 26 9 14 1012.4 1012.3 0.0
16/12:30pm 30.1 28.7 17.9 48 7.8 SE 22 32 12 17 1012.8 1012.7 0.0
16/12:00pm 29.8 28.2 18.3 50 7.4 SE 24 33 13 18 1013.3 1013.2 0.0
16/11:30am 29.1 26.9 17.9 50 7.1 SE 26 33 14 18 1013.6 1013.5 0.0
16/11:00am 28.0 25.4 17.8 54 6.5 SE 28 37 15 20 1013.9 1013.8 0.0
16/10:30am 27.2 24.2 17.7 56 6.0 SE 30 37 16 20 1014.1 1014.0 0.0
16/10:00am 26.4 24.1 17.5 58 5.6 SE 26 33 14 18 1014.2 1014.1 0.0
16/09:30am 25.9 23.9 17.5 59 5.3 SE 24 33 13 18 1014.1 1014.0 0.0
16/09:00am 24.4 22.7 17.1 63 4.5 SSE 22 30 12 16 1013.9 1013.8 0.0
16/08:30am 21.9 20.8 16.4 71 3.3 S 17 20 9 11 1013.6 1013.5 0.0
16/08:00am 20.0 18.5 15.4 75 2.7 S 17 22 9 12 1013.5 1013.4 0.0
16/07:30am 18.2 17.2 14.7 80 2.0 SSW 13 15 7 8 1013.1 1013.0 0.0
16/07:00am 17.1 16.1 14.6 85 1.4 SSW 13 15 7 8 1012.9 1012.8 0.0
16/06:30am 16.8 16.1 14.4 86 1.4 SSW 11 13 6 7 1012.6 1012.5 0.0
16/06:00am 16.9 15.9 14.5 86 1.4 SSW 13 13 7 7 1012.2 1012.1 0.0
16/05:30am 16.0 15.4 14.7 92 0.7 SW 11 13 6 7 1012.1 1012.0 0.0
16/05:00am 16.3 16.1 14.7 90 0.9 SW 9 11 5 6 1012.1 1012.0 0.0
16/04:30am 16.4 15.9 14.8 90 0.9 SW 11 13 6 7 1011.9 1011.8 0.0
16/04:00am 16.4 15.8 14.6 89 1.0 WSW 11 11 6 6 1011.9 1011.8 0.0
16/03:30am 17.3 17.5 14.8 85 1.4 SSW 7 7 4 4 1011.9 1011.8 0.0
16/03:00am 18.0 18.1 14.5 80 2.0 SSE 7 9 4 5 1011.9 1011.8 0.0
16/02:30am 18.7 18.0 14.4 76 2.5 SSE 11 13 6 7 1012.0 1011.9 0.0
16/02:00am 19.4 18.7 14.2 72 3.0 SSE 11 13 6 7 1012.2 1012.1 0.0
16/01:30am 18.8 18.9 14.5 76 2.5 SSE 7 9 4 5 1012.4 1012.3 0.0
16/01:00am 19.3 19.3 14.1 72 3.0 SSE 7 7 4 4 1012.5 1012.4 0.0
16/12:30am 20.4 19.8 14.5 69 3.4 SE 11 15 6 8 1012.5 1012.4 0.0
16/12:00am 19.7 20.3 15.8 78 2.3 ESE 7 13 4 7 1012.7 1012.6 0.0
 
Date/Time
EST
Temp
°C
App
Temp
°C
Dew
Point
°C
Rel
Hum
%
Delta-T
°C
Wind Press
QNH
hPa
Press
MSL
hPa
Rain since
9am
mm
Dir  Spd
km/h
Gust
km/h
Spd
kts
Gust
kts
15/11:30pm 18.8 19.8 16.9 89 1.1 W 7 9 4 5 1012.9 1012.8 0.0
15/11:00pm 19.1 21.0 16.7 86 1.4 W 2 11 1 6 1012.9 1012.8 0.0
15/10:30pm 20.3 22.5 16.5 79 2.3 CALM 0 0 0 0 1012.7 1012.6 0.0
15/10:00pm 20.1 22.3 16.5 80 2.2 CALM 0 0 0 0 1012.6 1012.5 0.0
15/09:30pm 20.6 21.9 16.2 76 2.6 ESE 4 7 2 4 1012.6 1012.5 0.0
15/09:00pm 22.7 23.9 15.8 65 4.2 NNW 4 13 2 7 1012.4 1012.3 0.0
15/08:30pm 21.8 22.7 16.1 70 3.4 NE 6 7 3 4 1012.0 1011.9 0.0
15/08:00pm 21.4 22.2 15.9 71 3.3 N 6 9 3 5 1011.6 1011.5 0.0
15/07:30pm 22.7 23.0 13.5 56 5.3 SE 4 6 2 3 1011.1 1011.0 0.0
15/07:00pm 24.4 23.8 13.6 51 6.3 ESE 9 11 5 6 1010.4 1010.3 0.0
15/06:30pm 25.5 24.6 12.7 45 7.4 SE 9 9 5 5 1010.0 1009.9 0.0
15/06:00pm 27.7 26.6 12.1 38 9.0 SSE 9 13 5 7 1009.7 1009.6 0.0
15/05:30pm 29.0 27.4 11.6 34 10.0 SE 11 13 6 7 1009.5 1009.4 0.0
15/05:00pm 29.6 28.0 11.6 33 10.4 SSE 11 19 6 10 1009.3 1009.2 0.0
15/04:30pm 29.9 28.5 12.3 33 10.3 SSE 11 19 6 10 1009.2 1009.1 0.0
15/04:00pm 30.1 29.2 12.5 34 10.4 SSE 9 17 5 9 1009.2 1009.1 0.0
15/03:30pm 29.7 28.1 11.7 33 10.4 SSE 11 17 6 9 1009.3 1009.2 0.0
15/03:00pm 30.1 28.4 12.5 34 10.4 SSE 13 20 7 11 1009.4 1009.3 0.0
15/02:30pm 29.5 27.5 11.5 32 10.4 SSE 13 20 7 11 1009.7 1009.6 0.0
15/02:00pm 30.4 28.5 11.9 32 10.8 S 13 20 7 11 1010.0 1009.9 0.0
15/01:30pm 29.7 27.1 10.8 31 10.8 S 15 28 8 15 1010.5 1010.4 0.0
15/01:00pm 29.1 26.5 12.1 35 9.9 SSE 17 24 9 13 1011.0 1010.9 0.0
15/12:30pm 28.7 26.0 11.7 35 9.8 SE 17 24 9 13 1011.6 1011.5 0.0
15/12:00pm 28.0 25.4 13.1 39 8.8 SSE 19 26 10 14 1012.3 1012.2 0.0
15/11:30am 27.3 25.2 14.7 46 7.6 SE 19 26 10 14 1012.9 1012.8 0.0
15/11:00am 26.4 24.2 14.5 48 7.1 SE 19 26 10 14 1013.4 1013.3 0.0
15/10:30am 25.8 23.9 15.2 52 6.4 SE 19 24 10 13 1013.9 1013.8 0.0
15/10:00am 24.1 22.0 14.8 56 5.5 SE 19 24 10 13 1014.0 1013.9 0.0
15/09:30am 22.9 20.9 15.0 61 4.7 SE 19 24 10 13 1014.1 1014.0 0.0
15/09:00am 20.9 19.8 15.2 70 3.4 SSE 15 19 8 10 1014.0 1013.9 0.0
15/08:30am 19.1 18.9 14.6 75 2.6 SSE 9 13 5 7 1013.9 1013.8 0.0
15/08:00am 17.0 18.8 15.5 91 0.9 CALM 0 0 0 0 1013.7 1013.6 0.0
15/07:30am 14.9 14.9 14.1 95 0.5 SW 7 7 4 4 1013.2 1013.1 0.0
15/07:00am 14.5 14.6 13.9 96 0.3 SW 6 7 3 4 1013.0 1012.9 0.0
15/06:30am 14.2 14.2 13.7 97 0.3 SSW 6 7 3 4 1012.7 1012.6 0.0
15/06:00am 14.5 14.0 13.9 96 0.3 SW 9 9 5 5 1012.6 1012.5 0.0
15/05:30am 15.1 15.1 14.3 95 0.5 SW 7 7 4 4 1012.4 1012.3 0.0
15/05:00am 15.4 15.1 14.3 93 0.6 SW 9 9 5 5 1012.2 1012.1 0.0
15/04:30am 16.2 16.3 15.4 95 0.5 SW 9 11 5 6 1012.2 1012.1 0.0
15/04:00am 16.1 15.7 16.1 100 0.0 WSW 13 15 7 8 1012.4 1012.3 0.0
15/03:30am 16.6 17.1 16.6 100 0.0 SW 9 11 5 6 1012.1 1012.0 0.0
15/03:00am 16.4 16.8 16.4 100 0.0 SW 9 13 5 7 1012.0 1011.9 0.0
15/02:30am 16.7 17.6 16.7 100 0.0 WNW 7 11 4 6 1012.0 1011.9 0.0
15/02:00am 16.5 17.4 16.5 100 0.0 WNW 7 9 4 5 1012.0 1011.9 0.0
15/01:30am 16.5 16.9 16.3 99 0.1 WNW 9 11 5 6 1012.3 1012.2 0.0
15/01:00am 16.9 17.3 16.4 97 0.3 WNW 9 11 5 6 1012.3 1012.2 0.0
15/12:30am 17.5 18.4 16.5 94 0.6 WSW 7 9 4 5 1012.5 1012.4 0.0
15/12:00am 18.1 19.2 17.0 93 0.7 SW 7 9 4 5 1012.6 1012.5 0.0
 
Date/Time
EST
Temp
°C
App
Temp
°C
Dew
Point
°C
Rel
Hum
%
Delta-T
°C
Wind Press
QNH
hPa
Press
MSL
hPa
Rain since
9am
mm
Dir  Spd
km/h
Gust
km/h
Spd
kts
Gust
kts
14/11:30pm 18.4 19.6 16.9 91 0.9 SSW 6 7 3 4 1012.4 1012.3 0.0
14/11:00pm 18.6 20.6 17.8 95 0.5 SSW 4 7 2 4 1012.4 1012.3 0.0
14/10:30pm 19.0 21.5 17.3 90 1.0 CALM 0 0 0 0 1012.3 1012.2 0.0
14/10:00pm 18.9 21.2 16.7 87 1.3 CALM 0 6 0 3 1012.2 1012.1 0.0
14/09:30pm 20.1 22.4 16.7 81 2.1 CALM 0 0 0 0 1012.1 1012.0 0.0
14/09:00pm 20.4 22.6 16.4 78 2.4 CALM 0 0 0 0 1012.0 1011.9 0.0
14/08:30pm 21.2 23.1 16.8 76 2.7 WNW 2 4 1 2 1011.7 1011.6 0.0
14/08:00pm 21.3 21.8 16.5 74 2.9 NW 9 13 5 7 1011.4 1011.3 0.0
14/07:30pm 22.5 24.1 14.9 62 4.5 CALM 0 6 0 3 1010.9 1010.8 0.0
14/07:00pm 24.2 24.5 14.6 55 5.7 ESE 6 6 3 3 1010.5 1010.4 0.0
14/06:30pm 25.7 26.0 14.5 50 6.7 ESE 6 9 3 5 1010.2 1010.1 0.0
14/06:00pm 27.1 26.2 13.8 44 7.9 SE 11 13 6 7 1010.0 1009.9 0.0
14/05:30pm 28.3 26.8 13.0 39 9.0 SSE 13 17 7 9 1009.8 1009.7 0.0

Other formats

Comma delimited format used in spreadsheet applications
http://www.bom.gov.au/fwo/IDQ60801/IDQ60801.94260.axf

JavaScript Object Notation format (JSON) in row-major order
http://www.bom.gov.au/fwo/IDQ60801/IDQ60801.94260.json

Data quality

Most of these data are generated automatically and are frequently updated. Quality checks on data are not normally performed. It is possible for incorrect values to appear. Refer to information at About Latest Weather Observations and please check the disclaimer before using these data.